createdAt,value
2023-04-16T00:00:25.972Z,8.00
2023-04-16T00:02:52.867Z,8.00
2023-04-16T00:05:19.978Z,8.00
2023-04-16T00:07:46.958Z,8.00
2023-04-16T00:10:14.409Z,7.90
2023-04-16T00:12:41.489Z,8.00
2023-04-16T00:15:08.683Z,8.00
2023-04-16T00:17:35.789Z,8.00
2023-04-16T00:20:02.706Z,8.00
2023-04-16T00:22:29.522Z,7.90
2023-04-16T00:24:57.104Z,8.00
2023-04-16T00:27:24.193Z,8.00
2023-04-16T00:29:50.950Z,8.00
2023-04-16T00:32:20.676Z,8.00
2023-04-16T00:34:47.848Z,8.00
2023-04-16T00:37:14.772Z,8.00
2023-04-16T00:39:41.528Z,8.00
2023-04-16T00:42:08.437Z,8.00
2023-04-16T00:44:36.037Z,8.00
2023-04-16T00:47:04.011Z,8.00
2023-04-16T00:49:31.763Z,8.00
2023-04-16T00:52:00.005Z,8.00
2023-04-16T00:54:26.815Z,7.90
2023-04-16T00:56:54.244Z,8.00
2023-04-16T00:59:23.359Z,7.90
2023-04-16T01:01:53.346Z,7.90
2023-04-16T01:04:21.697Z,7.90
2023-04-16T01:06:48.813Z,7.90
2023-04-16T01:09:16.840Z,7.90
2023-04-16T01:11:43.962Z,7.90
2023-04-16T01:14:11.085Z,7.90
2023-04-16T01:16:38.238Z,7.90
2023-04-16T01:19:06.476Z,7.90
2023-04-16T01:21:33.258Z,7.90
2023-04-16T01:24:05.948Z,7.90
2023-04-16T01:26:33.661Z,7.80
2023-04-16T01:29:00.616Z,7.90
2023-04-16T01:31:27.540Z,7.90
2023-04-16T01:34:07.392Z,7.90
2023-04-16T01:36:35.188Z,7.90
2023-04-16T01:39:02.217Z,7.90
2023-04-16T01:41:31.262Z,7.80
2023-04-16T01:43:58.030Z,7.80
2023-04-16T01:46:31.649Z,7.80
2023-04-16T01:48:58.923Z,7.80
2023-04-16T01:51:27.155Z,7.90
2023-04-16T01:53:54.775Z,7.80
2023-04-16T01:56:21.650Z,7.80
2023-04-16T01:58:48.596Z,7.80
2023-04-16T02:01:17.456Z,7.80
2023-04-16T02:03:46.014Z,7.70
2023-04-16T02:06:12.950Z,7.70
2023-04-16T02:08:39.929Z,7.80
2023-04-16T02:11:07.556Z,7.80
2023-04-16T02:13:34.970Z,7.70
2023-04-16T02:16:02.642Z,7.60
2023-04-16T02:18:40.980Z,7.70
2023-04-16T02:21:08.468Z,7.70
2023-04-16T02:23:35.538Z,7.70
2023-04-16T02:26:03.563Z,7.70
2023-04-16T02:28:30.902Z,7.60
2023-04-16T02:30:57.828Z,7.70
2023-04-16T02:33:26.708Z,7.60
2023-04-16T02:36:00.070Z,7.60
2023-04-16T02:38:26.976Z,7.60
2023-04-16T02:40:54.310Z,7.60
2023-04-16T02:43:21.128Z,7.60
2023-04-16T02:45:47.967Z,7.60
2023-04-16T02:48:15.353Z,7.50
2023-04-16T02:50:42.438Z,7.50
2023-04-16T02:53:10.620Z,7.50
2023-04-16T02:55:37.430Z,7.50
2023-04-16T02:58:04.388Z,7.50
2023-04-16T03:00:31.160Z,7.50
2023-04-16T03:02:58.134Z,7.50
2023-04-16T03:05:25.264Z,7.50
2023-04-16T03:07:56.492Z,7.50
2023-04-16T03:10:24.118Z,7.60
2023-04-16T03:12:51.136Z,7.40
2023-04-16T03:15:18.088Z,7.50
2023-04-16T03:17:44.919Z,7.40
2023-04-16T03:20:12.136Z,7.40
2023-04-16T03:22:39.493Z,7.40
2023-04-16T03:25:07.865Z,7.40
2023-04-16T03:27:35.474Z,7.40
2023-04-16T03:30:03.258Z,7.30
2023-04-16T03:32:31.273Z,7.40
2023-04-16T03:34:58.219Z,7.40
2023-04-16T03:37:25.692Z,7.40
2023-04-16T03:39:52.761Z,7.40
2023-04-16T03:42:19.580Z,7.40
2023-04-16T03:44:46.493Z,7.40
2023-04-16T03:47:14.813Z,7.30
2023-04-16T03:49:41.794Z,7.30
2023-04-16T03:52:08.598Z,7.30
2023-04-16T03:54:35.511Z,7.30
2023-04-16T03:57:14.556Z,7.40
2023-04-16T03:59:41.429Z,7.30
2023-04-16T04:02:08.261Z,7.30
2023-04-16T04:04:35.316Z,7.30
2023-04-16T04:07:03.018Z,7.40
2023-04-16T04:09:29.854Z,7.30
2023-04-16T04:11:56.632Z,7.50
2023-04-16T04:14:23.543Z,7.30
2023-04-16T04:16:50.468Z,7.30
2023-04-16T04:19:17.324Z,7.30
2023-04-16T04:21:44.287Z,7.30
2023-04-16T04:24:11.274Z,7.30
2023-04-16T04:26:38.152Z,7.20
2023-04-16T04:29:05.038Z,7.20
2023-04-16T04:31:31.986Z,7.20
2023-04-16T04:33:58.997Z,7.20
2023-04-16T04:36:27.387Z,7.30
2023-04-16T04:38:54.824Z,7.20
2023-04-16T04:41:22.453Z,7.20
2023-04-16T04:43:49.305Z,7.20
2023-04-16T04:46:16.714Z,7.20
2023-04-16T04:48:43.700Z,7.30
2023-04-16T04:51:10.874Z,7.20
2023-04-16T04:53:37.720Z,7.30
2023-04-16T04:56:12.157Z,7.20
2023-04-16T04:58:41.328Z,7.20
2023-04-16T05:01:08.348Z,7.10
2023-04-16T05:03:35.486Z,7.20
2023-04-16T05:06:02.324Z,7.10
2023-04-16T05:08:29.206Z,7.10
2023-04-16T05:10:55.950Z,7.10
2023-04-16T05:13:22.749Z,7.10
2023-04-16T05:15:49.550Z,7.10
2023-04-16T05:18:16.529Z,7.10
2023-04-16T05:20:43.331Z,7.10
2023-04-16T05:23:10.183Z,7.10
2023-04-16T05:25:36.949Z,7.10
2023-04-16T05:28:04.028Z,7.10
2023-04-16T05:30:31.005Z,7.10
2023-04-16T05:32:57.935Z,7.10
2023-04-16T05:35:24.678Z,7.00
2023-04-16T05:37:51.489Z,7.10
2023-04-16T05:40:18.433Z,7.00
2023-04-16T05:42:45.475Z,7.10
2023-04-16T05:45:12.365Z,7.10
2023-04-16T05:47:39.303Z,7.10
2023-04-16T05:50:06.726Z,7.10
2023-04-16T05:52:33.561Z,7.00
2023-04-16T05:55:01.678Z,7.00
2023-04-16T05:57:29.551Z,7.10
2023-04-16T05:59:56.348Z,7.10
2023-04-16T06:02:23.544Z,7.00
2023-04-16T06:04:50.358Z,7.00
2023-04-16T06:07:17.568Z,7.10
2023-04-16T06:09:45.610Z,7.00
2023-04-16T06:12:12.985Z,7.10
2023-04-16T06:14:39.954Z,7.00
2023-04-16T06:17:07.212Z,7.00
2023-04-16T06:19:34.056Z,7.20
2023-04-16T06:22:01.424Z,7.00
2023-04-16T06:24:28.420Z,7.00
2023-04-16T06:26:55.701Z,7.00
2023-04-16T06:29:30.461Z,7.00
2023-04-16T06:32:04.686Z,7.00
2023-04-16T06:34:31.793Z,7.00
2023-04-16T06:36:58.702Z,7.00
2023-04-16T06:39:25.718Z,7.00
2023-04-16T06:41:52.684Z,7.00
2023-04-16T06:44:19.435Z,7.00
2023-04-16T06:46:46.276Z,7.00
2023-04-16T06:49:13.299Z,7.00
2023-04-16T06:51:40.296Z,6.90
2023-04-16T06:54:07.231Z,7.00
2023-04-16T06:56:34.224Z,7.00
2023-04-16T06:59:01.013Z,7.00
2023-04-16T07:01:28.792Z,6.90
2023-04-16T07:03:55.865Z,7.00
2023-04-16T07:06:22.812Z,6.90
2023-04-16T07:08:49.687Z,6.90
2023-04-16T07:11:17.212Z,6.90
2023-04-16T07:13:44.096Z,6.90
2023-04-16T07:16:11.016Z,6.80
2023-04-16T07:18:38.019Z,6.80
2023-04-16T07:21:05.049Z,6.80
2023-04-16T07:23:32.062Z,6.80
2023-04-16T07:25:59.100Z,6.80
2023-04-16T07:28:26.377Z,6.80
2023-04-16T07:30:53.236Z,6.80
2023-04-16T07:33:20.118Z,6.80
2023-04-16T07:35:47.298Z,6.80
2023-04-16T07:38:14.774Z,6.80
2023-04-16T07:40:42.086Z,6.90
2023-04-16T07:43:09.523Z,6.80
2023-04-16T07:45:36.438Z,6.80
2023-04-16T07:48:03.419Z,6.90
2023-04-16T07:50:30.324Z,6.90
2023-04-16T07:52:57.104Z,6.90
2023-04-16T07:55:24.020Z,6.90
2023-04-16T07:57:50.770Z,6.90
2023-04-16T08:00:17.918Z,6.90
2023-04-16T08:02:45.276Z,6.90
2023-04-16T08:05:13.347Z,6.80
2023-04-16T08:07:40.259Z,6.90
2023-04-16T08:10:08.193Z,6.80
2023-04-16T08:12:35.363Z,6.90
2023-04-16T08:15:02.294Z,6.90
2023-04-16T08:17:30.094Z,6.80
2023-04-16T08:19:57.118Z,6.80
2023-04-16T08:22:23.961Z,6.80
2023-04-16T08:24:50.890Z,6.70
2023-04-16T08:27:19.685Z,6.70
2023-04-16T08:29:47.612Z,6.70
2023-04-16T08:32:14.514Z,6.70
2023-04-16T08:34:42.403Z,6.70
2023-04-16T08:37:09.624Z,6.70
2023-04-16T08:39:36.698Z,6.60
2023-04-16T08:42:11.171Z,6.70
2023-04-16T08:44:47.845Z,6.70
2023-04-16T08:47:16.371Z,6.60
2023-04-16T08:49:45.772Z,6.60
2023-04-16T08:52:18.533Z,6.60
2023-04-16T08:55:02.988Z,6.70
2023-04-16T08:57:53.585Z,6.60
2023-04-16T09:00:21.228Z,6.60
2023-04-16T09:02:50.217Z,6.60
2023-04-16T09:05:17.912Z,6.60
2023-04-16T09:07:48.420Z,6.60
2023-04-16T09:10:16.416Z,6.60
2023-04-16T09:12:43.723Z,6.60
2023-04-16T09:15:14.110Z,6.60
2023-04-16T09:17:41.014Z,6.60
2023-04-16T09:20:10.872Z,6.60
2023-04-16T09:22:42.559Z,6.70
2023-04-16T09:25:10.312Z,6.70
2023-04-16T09:27:37.455Z,6.60
2023-04-16T09:30:25.537Z,6.70
2023-04-16T09:33:11.467Z,6.60
2023-04-16T09:35:49.502Z,6.70
2023-04-16T09:38:16.565Z,6.70
2023-04-16T09:40:44.003Z,6.70
2023-04-16T09:43:18.464Z,6.70
2023-04-16T09:45:56.641Z,6.70
2023-04-16T09:48:31.069Z,6.70
2023-04-16T09:50:59.383Z,6.70
2023-04-16T09:53:28.247Z,6.70
2023-04-16T09:56:02.290Z,6.80
2023-04-16T09:58:29.765Z,6.70
2023-04-16T10:01:10.819Z,6.70
2023-04-16T10:03:39.801Z,6.70
2023-04-16T10:06:07.944Z,6.70
2023-04-16T10:08:34.820Z,6.70
2023-04-16T10:11:02.624Z,6.70
2023-04-16T10:13:31.138Z,6.70
2023-04-16T10:15:58.768Z,6.70
2023-04-16T10:18:25.755Z,6.70
2023-04-16T10:20:52.836Z,6.70
2023-04-16T10:23:22.103Z,6.80
2023-04-16T10:25:56.407Z,6.80
2023-04-16T10:28:24.907Z,6.80
2023-04-16T10:30:53.669Z,6.70
2023-04-16T10:33:30.330Z,6.70
2023-04-16T10:36:22.567Z,6.80
2023-04-16T10:38:53.430Z,6.80
2023-04-16T10:41:21.107Z,6.80
2023-04-16T10:43:49.557Z,6.80
2023-04-16T10:46:19.369Z,6.80
2023-04-16T10:48:50.190Z,6.80
2023-04-16T10:51:29.817Z,6.80
2023-04-16T10:53:58.468Z,6.80
2023-04-16T10:56:30.493Z,6.90
2023-04-16T10:58:57.535Z,6.90
2023-04-16T11:01:36.031Z,6.90
2023-04-16T11:04:21.564Z,6.90
2023-04-16T11:07:19.396Z,6.90
2023-04-16T11:10:02.231Z,6.90
2023-04-16T11:12:44.714Z,7.00
2023-04-16T11:15:13.479Z,7.00
2023-04-16T11:17:43.339Z,7.00
2023-04-16T11:20:19.542Z,7.10
2023-04-16T11:22:54.879Z,7.10
2023-04-16T11:25:24.786Z,7.20
2023-04-16T11:27:55.584Z,7.20
2023-04-16T11:30:34.220Z,7.20
2023-04-16T11:33:05.746Z,7.30
2023-04-16T11:35:32.645Z,7.40
2023-04-16T11:37:59.538Z,7.40
2023-04-16T11:40:30.810Z,7.40
2023-04-16T11:43:21.882Z,7.40
2023-04-16T11:46:16.168Z,7.40
2023-04-16T11:48:48.039Z,7.50
2023-04-16T11:51:15.072Z,7.50
2023-04-16T11:53:53.200Z,7.50
2023-04-16T11:56:30.684Z,7.50
2023-04-16T11:59:15.467Z,7.50
2023-04-16T12:01:46.526Z,7.50
2023-04-16T12:04:18.805Z,7.50
2023-04-16T12:07:08.969Z,7.50
2023-04-16T12:09:39.522Z,7.40
2023-04-16T12:12:31.466Z,7.40
2023-04-16T12:15:05.560Z,7.40
2023-04-16T12:17:33.695Z,7.50
2023-04-16T12:20:07.079Z,7.50
2023-04-16T12:22:38.931Z,7.50
2023-04-16T12:25:08.152Z,7.50
2023-04-16T12:27:47.023Z,7.40
2023-04-16T12:30:19.427Z,7.40
2023-04-16T12:32:51.630Z,7.40
2023-04-16T12:35:32.955Z,7.40
2023-04-16T12:38:00.300Z,7.40
2023-04-16T12:40:27.578Z,7.60
2023-04-16T12:42:54.916Z,7.50
2023-04-16T12:45:22.901Z,7.50
2023-04-16T12:47:50.627Z,7.50
2023-04-16T12:50:17.809Z,7.60
2023-04-16T12:52:44.904Z,7.60
2023-04-16T12:55:12.491Z,7.60
2023-04-16T12:57:39.374Z,7.70
2023-04-16T13:00:08.504Z,7.70
2023-04-16T13:02:35.552Z,7.70
2023-04-16T13:05:02.769Z,7.70
2023-04-16T13:07:32.121Z,7.80
2023-04-16T13:09:59.356Z,7.70
2023-04-16T13:12:27.116Z,7.80
2023-04-16T13:14:55.263Z,7.70
2023-04-16T13:17:22.448Z,7.70
2023-04-16T13:19:49.322Z,7.70
2023-04-16T13:22:16.427Z,7.70
2023-04-16T13:24:44.607Z,7.70
2023-04-16T13:27:12.529Z,7.70
2023-04-16T13:29:39.273Z,7.80
2023-04-16T13:32:06.396Z,7.80
2023-04-16T13:34:33.495Z,7.80
2023-04-16T13:37:02.544Z,7.80
2023-04-16T13:39:29.350Z,7.80
2023-04-16T13:41:56.219Z,7.80
2023-04-16T13:44:22.987Z,7.80
2023-04-16T13:46:50.061Z,7.80
2023-04-16T13:49:16.947Z,7.80
2023-04-16T13:51:46.677Z,7.80
2023-04-16T13:54:13.476Z,7.80
2023-04-16T13:56:40.901Z,7.90
2023-04-16T13:59:08.406Z,7.90
2023-04-16T14:01:35.786Z,7.90
2023-04-16T14:04:06.820Z,7.90
2023-04-16T14:06:36.893Z,7.90
2023-04-16T14:09:04.367Z,7.90
2023-04-16T14:11:31.637Z,7.90
2023-04-16T14:13:58.504Z,7.90
2023-04-16T14:16:25.685Z,8.00
2023-04-16T14:18:52.552Z,8.00
2023-04-16T14:21:19.855Z,8.00
2023-04-16T14:23:46.804Z,8.00
2023-04-16T14:26:14.346Z,7.90
2023-04-16T14:28:41.801Z,8.10
2023-04-16T14:31:08.852Z,8.00
2023-04-16T14:33:35.727Z,8.00
2023-04-16T14:36:03.527Z,8.00
2023-04-16T14:38:31.215Z,8.10
2023-04-16T14:40:58.431Z,8.00
2023-04-16T14:43:26.091Z,8.00
2023-04-16T14:45:53.153Z,7.90
2023-04-16T14:48:20.283Z,8.10
2023-04-16T14:50:52.693Z,8.10
2023-04-16T14:53:26.900Z,8.10
2023-04-16T14:56:01.167Z,8.10
2023-04-16T14:58:31.453Z,8.00
2023-04-16T15:01:01.410Z,8.10
2023-04-16T15:03:39.303Z,8.00
2023-04-16T15:06:06.224Z,8.00
2023-04-16T15:08:33.041Z,8.00
2023-04-16T15:10:59.993Z,8.00
2023-04-16T15:13:33.597Z,8.00
2023-04-16T15:16:07.144Z,8.00
2023-04-16T15:18:34.233Z,7.90
2023-04-16T15:21:01.729Z,7.90
2023-04-16T15:23:29.020Z,7.90
2023-04-16T15:25:55.784Z,7.90
2023-04-16T15:28:23.280Z,7.80
2023-04-16T15:30:51.950Z,7.80
2023-04-16T15:33:22.795Z,7.80
2023-04-16T15:35:51.501Z,7.80
2023-04-16T15:38:21.078Z,7.80
2023-04-16T15:40:48.064Z,7.80
2023-04-16T15:43:15.655Z,7.80
2023-04-16T15:45:42.399Z,7.80
2023-04-16T15:48:09.374Z,7.70
2023-04-16T15:50:36.557Z,7.80
2023-04-16T15:53:03.649Z,7.80
2023-04-16T15:55:30.521Z,7.80
2023-04-16T15:57:57.309Z,7.80
2023-04-16T16:00:24.121Z,7.80
2023-04-16T16:02:51.152Z,7.80
2023-04-16T16:05:18.640Z,7.80
2023-04-16T16:07:45.642Z,7.80
2023-04-16T16:10:13.258Z,7.80
2023-04-16T16:12:40.749Z,7.90
2023-04-16T16:15:08.115Z,7.90
2023-04-16T16:17:35.158Z,7.90
2023-04-16T16:20:02.630Z,8.00
2023-04-16T16:22:29.919Z,7.90
2023-04-16T16:24:57.832Z,7.90
2023-04-16T16:27:24.697Z,7.90
2023-04-16T16:29:51.688Z,7.90
2023-04-16T16:32:18.567Z,7.90
2023-04-16T16:34:45.526Z,7.90
2023-04-16T16:37:12.358Z,7.90
2023-04-16T16:39:43.342Z,7.90
2023-04-16T16:42:19.275Z,7.90
2023-04-16T16:44:49.060Z,7.90
2023-04-16T16:47:19.044Z,7.90
2023-04-16T16:49:46.104Z,7.80
2023-04-16T16:52:12.966Z,7.90
2023-04-16T16:54:39.849Z,7.80
2023-04-16T16:57:06.941Z,7.90
2023-04-16T16:59:33.864Z,7.80
2023-04-16T17:02:00.993Z,7.80
2023-04-16T17:04:27.921Z,7.80
2023-04-16T17:06:54.773Z,7.80
2023-04-16T17:09:22.234Z,7.80
2023-04-16T17:11:48.977Z,7.90
2023-04-16T17:14:16.005Z,7.80
2023-04-16T17:16:42.808Z,7.80
2023-04-16T17:19:10.184Z,7.80
2023-04-16T17:21:37.113Z,7.90
2023-04-16T17:24:04.264Z,7.90
2023-04-16T17:26:31.804Z,7.90
2023-04-16T17:28:59.356Z,7.90
2023-04-16T17:31:29.053Z,7.90
2023-04-16T17:33:55.898Z,7.90
2023-04-16T17:36:23.290Z,7.90
2023-04-16T17:38:53.556Z,8.00
2023-04-16T17:41:51.913Z,7.90
2023-04-16T17:44:28.003Z,7.90
2023-04-16T17:46:54.993Z,7.90
2023-04-16T17:49:21.826Z,7.90
2023-04-16T17:51:49.098Z,7.90
2023-04-16T17:54:15.994Z,7.90
2023-04-16T18:01:03.696Z,7.80
2023-04-16T18:03:37.748Z,7.80
2023-04-16T18:06:05.260Z,7.80
2023-04-16T18:08:32.134Z,7.80
2023-04-16T18:10:58.986Z,7.80
2023-04-16T18:13:25.849Z,7.80
2023-04-16T18:15:53.023Z,7.70
2023-04-16T18:18:21.169Z,7.90
2023-04-16T18:20:48.529Z,7.80
2023-04-16T18:23:18.789Z,7.70
2023-04-16T18:26:25.402Z,7.80
2023-04-16T18:28:53.334Z,7.80
2023-04-16T18:31:28.079Z,7.80
2023-04-16T18:34:35.327Z,7.80
2023-04-16T18:37:04.419Z,7.80
2023-04-16T18:39:33.837Z,7.80
2023-04-16T18:42:01.754Z,7.80
2023-04-16T18:44:39.948Z,7.80
2023-04-16T18:47:13.866Z,7.80
2023-04-16T18:50:12.921Z,7.80
2023-04-16T18:52:39.847Z,7.90
2023-04-16T18:55:07.223Z,7.80
2023-04-16T18:57:45.980Z,7.80
2023-04-16T19:00:19.973Z,7.80
2023-04-16T19:02:47.061Z,7.80
2023-04-16T19:05:14.094Z,7.80
2023-04-16T19:07:41.737Z,7.80
2023-04-16T19:10:09.317Z,7.90
2023-04-16T19:12:36.134Z,7.90
2023-04-16T19:15:03.053Z,7.90
2023-04-16T19:17:29.933Z,7.90
2023-04-16T19:19:56.745Z,7.90
2023-04-16T19:22:23.491Z,7.80
2023-04-16T19:24:50.279Z,7.90
2023-04-16T19:27:17.087Z,7.90
2023-04-16T19:29:45.182Z,7.90
2023-04-16T19:32:14.077Z,7.90
2023-04-16T19:34:41.089Z,7.90
2023-04-16T19:37:07.902Z,7.90
2023-04-16T19:39:34.768Z,7.90
2023-04-16T19:42:01.715Z,7.90
2023-04-16T19:44:28.610Z,7.90
2023-04-16T19:46:55.583Z,7.90
2023-04-16T19:49:22.418Z,7.90
2023-04-16T19:51:49.503Z,7.90
2023-04-16T19:54:16.597Z,7.80
2023-04-16T19:56:43.405Z,7.80
2023-04-16T19:59:10.465Z,7.90
2023-04-16T20:01:37.611Z,7.90
2023-04-16T20:04:04.828Z,7.90
2023-04-16T20:06:31.724Z,7.90
2023-04-16T20:08:58.694Z,7.90
2023-04-16T20:11:25.576Z,7.90
2023-04-16T20:13:52.373Z,7.90
2023-04-16T20:16:23.847Z,8.00
2023-04-16T20:18:54.081Z,7.90
2023-04-16T20:21:25.105Z,7.90
2023-04-16T20:23:51.915Z,7.90
2023-04-16T20:26:18.867Z,7.90
2023-04-16T20:28:45.924Z,7.90
2023-04-16T20:31:13.220Z,7.90
2023-04-16T20:34:00.091Z,8.00
2023-04-16T20:36:27.828Z,8.00
2023-04-16T20:38:54.783Z,8.00
2023-04-16T20:41:22.426Z,8.10
2023-04-16T20:43:52.743Z,8.00
2023-04-16T20:46:24.160Z,8.00
2023-04-16T20:48:51.516Z,8.00
2023-04-16T20:51:18.343Z,7.90
2023-04-16T20:53:45.480Z,7.90
2023-04-16T20:56:14.722Z,7.90
2023-04-16T20:58:42.548Z,8.00
2023-04-16T21:01:09.562Z,8.00
2023-04-16T21:03:37.058Z,8.00
2023-04-16T21:06:04.277Z,8.00
2023-04-16T21:08:31.499Z,8.00
2023-04-16T21:10:58.334Z,8.00
2023-04-16T21:13:25.479Z,8.10
2023-04-16T21:15:52.618Z,7.90
2023-04-16T21:18:19.804Z,8.00
2023-04-16T21:20:46.688Z,7.90
2023-04-16T21:23:13.586Z,7.90
2023-04-16T21:25:40.951Z,8.00
2023-04-16T21:28:07.804Z,8.00
2023-04-16T21:30:34.660Z,7.90
2023-04-16T21:33:01.662Z,8.00
2023-04-16T21:35:28.483Z,7.90
2023-04-16T21:37:55.300Z,7.90
2023-04-16T21:40:22.298Z,7.90
2023-04-16T21:42:49.195Z,7.90
2023-04-16T21:45:16.189Z,7.90
2023-04-16T21:47:43.014Z,7.90
2023-04-16T21:50:10.247Z,7.90
2023-04-16T21:52:40.699Z,7.90
2023-04-16T21:55:09.395Z,7.90
2023-04-16T21:57:36.149Z,7.90
2023-04-16T22:00:06.793Z,7.90
2023-04-16T22:02:34.028Z,7.90
2023-04-16T22:05:01.335Z,7.80
2023-04-16T22:07:28.898Z,7.90
2023-04-16T22:09:56.313Z,7.80
2023-04-16T22:12:23.130Z,7.80
2023-04-16T22:17:23.633Z,7.80
2023-04-16T22:19:50.848Z,7.80
2023-04-16T22:22:18.039Z,7.80
2023-04-16T22:24:45.513Z,7.80
2023-04-16T22:27:12.339Z,7.80
2023-04-16T22:29:39.109Z,7.80
2023-04-16T22:32:06.368Z,7.80
2023-04-16T22:34:33.257Z,7.80
2023-04-16T22:37:02.806Z,7.80
2023-04-16T22:39:30.815Z,7.80
2023-04-16T22:41:57.716Z,7.90
2023-04-16T22:44:24.470Z,7.80
2023-04-16T22:46:51.372Z,7.80
2023-04-16T22:49:18.272Z,7.80
2023-04-16T22:51:45.160Z,7.80
2023-04-16T22:54:13.628Z,7.90
2023-04-16T22:56:41.254Z,7.80
2023-04-16T22:59:08.225Z,7.80
2023-04-16T23:01:35.624Z,7.90
2023-04-16T23:04:02.540Z,7.90
2023-04-16T23:06:29.381Z,7.90
2023-04-16T23:08:56.193Z,7.90
2023-04-16T23:11:23.365Z,7.90
2023-04-16T23:13:50.135Z,7.90
2023-04-16T23:16:16.959Z,7.90
2023-04-16T23:18:43.830Z,7.90
2023-04-16T23:21:10.952Z,7.90
2023-04-16T23:23:37.740Z,7.80
2023-04-16T23:26:04.837Z,7.80
2023-04-16T23:28:31.628Z,7.90
2023-04-16T23:30:58.520Z,7.90
2023-04-16T23:33:25.330Z,7.80
2023-04-16T23:35:52.154Z,7.90
2023-04-16T23:38:18.953Z,7.80
2023-04-16T23:40:45.904Z,7.90
2023-04-16T23:43:12.812Z,7.80
2023-04-16T23:45:39.787Z,7.70
2023-04-16T23:48:07.064Z,7.80
2023-04-16T23:50:34.022Z,7.80
2023-04-16T23:53:00.802Z,7.80
2023-04-16T23:55:27.726Z,7.80
2023-04-16T23:57:54.690Z,7.80
